sensor_id;sensor_type;location;lat;lon;timestamp;P1;durP1;ratioP1;P2;durP2;ratioP2
35188;SDS011;21762;54.480;18.556;2022-08-19T00:00:44;25.75;;;17.35;;
35188;SDS011;21762;54.480;18.556;2022-08-19T00:03:12;23.45;;;16.55;;
35188;SDS011;21762;54.480;18.556;2022-08-19T00:05:40;16.65;;;14.88;;
35188;SDS011;21762;54.480;18.556;2022-08-19T00:08:09;23.10;;;15.13;;
35188;SDS011;21762;54.480;18.556;2022-08-19T00:10:37;25.95;;;15.40;;
35188;SDS011;21762;54.480;18.556;2022-08-19T00:13:05;24.13;;;15.80;;
35188;SDS011;21762;54.480;18.556;2022-08-19T00:15:35;20.27;;;15.43;;
35188;SDS011;21762;54.480;18.556;2022-08-19T00:18:03;20.60;;;15.55;;
35188;SDS011;21762;54.480;18.556;2022-08-19T00:20:31;18.35;;;14.65;;
35188;SDS011;21762;54.480;18.556;2022-08-19T00:23:00;24.13;;;16.30;;
35188;SDS011;21762;54.480;18.556;2022-08-19T00:25:30;25.77;;;16.58;;
35188;SDS011;21762;54.480;18.556;2022-08-19T00:27:58;20.95;;;16.00;;
35188;SDS011;21762;54.480;18.556;2022-08-19T00:30:27;20.98;;;16.73;;
35188;SDS011;21762;54.480;18.556;2022-08-19T00:32:56;19.35;;;16.02;;
35188;SDS011;21762;54.480;18.556;2022-08-19T00:35:25;20.45;;;15.68;;
35188;SDS011;21762;54.480;18.556;2022-08-19T00:37:54;24.20;;;16.63;;
35188;SDS011;21762;54.480;18.556;2022-08-19T00:40:22;22.42;;;16.13;;
35188;SDS011;21762;54.480;18.556;2022-08-19T00:42:51;19.02;;;15.35;;
35188;SDS011;21762;54.480;18.556;2022-08-19T00:45:22;22.33;;;16.15;;
35188;SDS011;21762;54.480;18.556;2022-08-19T00:47:52;20.40;;;15.88;;
35188;SDS011;21762;54.480;18.556;2022-08-19T00:50:22;23.63;;;17.27;;
35188;SDS011;21762;54.480;18.556;2022-08-19T00:52:51;21.95;;;16.40;;
35188;SDS011;21762;54.480;18.556;2022-08-19T00:55:20;21.40;;;15.88;;
35188;SDS011;21762;54.480;18.556;2022-08-19T00:57:51;19.25;;;15.98;;
35188;SDS011;21762;54.480;18.556;2022-08-19T01:00:21;18.40;;;15.50;;
35188;SDS011;21762;54.480;18.556;2022-08-19T01:02:51;19.30;;;14.82;;
35188;SDS011;21762;54.480;18.556;2022-08-19T01:05:21;19.10;;;16.05;;
35188;SDS011;21762;54.480;18.556;2022-08-19T01:07:54;21.90;;;15.30;;
35188;SDS011;21762;54.480;18.556;2022-08-19T01:10:24;21.73;;;16.35;;
35188;SDS011;21762;54.480;18.556;2022-08-19T01:12:53;25.08;;;16.55;;
35188;SDS011;21762;54.480;18.556;2022-08-19T01:15:23;22.50;;;15.75;;
35188;SDS011;21762;54.480;18.556;2022-08-19T01:17:53;18.58;;;15.35;;
35188;SDS011;21762;54.480;18.556;2022-08-19T01:20:24;22.20;;;16.05;;
35188;SDS011;21762;54.480;18.556;2022-08-19T01:22:54;21.20;;;15.80;;
35188;SDS011;21762;54.480;18.556;2022-08-19T01:25:24;21.30;;;15.13;;
35188;SDS011;21762;54.480;18.556;2022-08-19T01:30:25;17.80;;;14.82;;
35188;SDS011;21762;54.480;18.556;2022-08-19T01:32:54;20.33;;;15.98;;
35188;SDS011;21762;54.480;18.556;2022-08-19T01:35:23;21.60;;;15.32;;
35188;SDS011;21762;54.480;18.556;2022-08-19T01:37:55;23.30;;;15.20;;
35188;SDS011;21762;54.480;18.556;2022-08-19T01:40:27;19.13;;;15.43;;
35188;SDS011;21762;54.480;18.556;2022-08-19T01:42:57;20.23;;;16.20;;
35188;SDS011;21762;54.480;18.556;2022-08-19T01:45:27;17.55;;;15.57;;
35188;SDS011;21762;54.480;18.556;2022-08-19T01:47:56;19.90;;;15.20;;
35188;SDS011;21762;54.480;18.556;2022-08-19T01:50:26;19.65;;;15.70;;
35188;SDS011;21762;54.480;18.556;2022-08-19T01:52:56;23.05;;;16.27;;
35188;SDS011;21762;54.480;18.556;2022-08-19T01:55:24;24.77;;;17.20;;
35188;SDS011;21762;54.480;18.556;2022-08-19T01:57:53;19.83;;;16.33;;
35188;SDS011;21762;54.480;18.556;2022-08-19T02:00:23;22.73;;;16.10;;
35188;SDS011;21762;54.480;18.556;2022-08-19T02:02:52;27.73;;;17.40;;
35188;SDS011;21762;54.480;18.556;2022-08-19T02:05:21;21.98;;;17.27;;
35188;SDS011;21762;54.480;18.556;2022-08-19T02:07:49;28.67;;;18.10;;
35188;SDS011;21762;54.480;18.556;2022-08-19T02:10:20;27.30;;;17.15;;
35188;SDS011;21762;54.480;18.556;2022-08-19T02:12:49;26.25;;;17.17;;
35188;SDS011;21762;54.480;18.556;2022-08-19T02:15:18;23.40;;;16.92;;
35188;SDS011;21762;54.480;18.556;2022-08-19T02:17:47;26.13;;;16.48;;
35188;SDS011;21762;54.480;18.556;2022-08-19T02:20:15;20.25;;;15.63;;
35188;SDS011;21762;54.480;18.556;2022-08-19T02:22:44;21.80;;;16.63;;
35188;SDS011;21762;54.480;18.556;2022-08-19T02:25:12;28.92;;;17.77;;
35188;SDS011;21762;54.480;18.556;2022-08-19T02:27:42;20.67;;;15.65;;
35188;SDS011;21762;54.480;18.556;2022-08-19T02:30:12;22.15;;;16.08;;
35188;SDS011;21762;54.480;18.556;2022-08-19T02:32:43;21.17;;;17.42;;
35188;SDS011;21762;54.480;18.556;2022-08-19T02:35:11;25.30;;;16.92;;
35188;SDS011;21762;54.480;18.556;2022-08-19T02:37:40;21.73;;;16.88;;
35188;SDS011;21762;54.480;18.556;2022-08-19T02:40:26;23.52;;;16.02;;
35188;SDS011;21762;54.480;18.556;2022-08-19T02:42:56;21.50;;;15.85;;
35188;SDS011;21762;54.480;18.556;2022-08-19T02:45:24;23.48;;;17.08;;
35188;SDS011;21762;54.480;18.556;2022-08-19T02:47:53;18.33;;;15.52;;
35188;SDS011;21762;54.480;18.556;2022-08-19T02:50:21;21.42;;;16.48;;
35188;SDS011;21762;54.480;18.556;2022-08-19T02:52:49;21.52;;;15.52;;
35188;SDS011;21762;54.480;18.556;2022-08-19T02:55:17;23.08;;;15.40;;
35188;SDS011;21762;54.480;18.556;2022-08-19T02:57:47;20.67;;;15.88;;
35188;SDS011;21762;54.480;18.556;2022-08-19T03:00:17;19.75;;;15.48;;
35188;SDS011;21762;54.480;18.556;2022-08-19T03:02:45;20.42;;;15.85;;
35188;SDS011;21762;54.480;18.556;2022-08-19T03:05:15;21.92;;;16.20;;
35188;SDS011;21762;54.480;18.556;2022-08-19T03:07:43;23.13;;;15.15;;
35188;SDS011;21762;54.480;18.556;2022-08-19T03:10:13;27.15;;;17.98;;
35188;SDS011;21762;54.480;18.556;2022-08-19T03:12:41;23.65;;;16.23;;
35188;SDS011;21762;54.480;18.556;2022-08-19T03:15:09;21.63;;;16.08;;
35188;SDS011;21762;54.480;18.556;2022-08-19T03:17:39;17.17;;;14.80;;
35188;SDS011;21762;54.480;18.556;2022-08-19T03:20:07;20.00;;;15.80;;
35188;SDS011;21762;54.480;18.556;2022-08-19T03:22:39;21.10;;;16.42;;
35188;SDS011;21762;54.480;18.556;2022-08-19T03:25:07;22.23;;;16.30;;
35188;SDS011;21762;54.480;18.556;2022-08-19T03:27:36;19.45;;;15.63;;
35188;SDS011;21762;54.480;18.556;2022-08-19T03:30:04;19.55;;;15.93;;
35188;SDS011;21762;54.480;18.556;2022-08-19T03:32:33;20.27;;;15.75;;
35188;SDS011;21762;54.480;18.556;2022-08-19T03:35:03;19.38;;;15.55;;
35188;SDS011;21762;54.480;18.556;2022-08-19T03:37:33;23.17;;;16.48;;
35188;SDS011;21762;54.480;18.556;2022-08-19T03:40:02;22.17;;;16.20;;
35188;SDS011;21762;54.480;18.556;2022-08-19T03:42:31;23.52;;;16.90;;
35188;SDS011;21762;54.480;18.556;2022-08-19T03:44:59;19.90;;;15.75;;
35188;SDS011;21762;54.480;18.556;2022-08-19T03:47:27;25.40;;;16.35;;
35188;SDS011;21762;54.480;18.556;2022-08-19T03:49:57;25.40;;;15.75;;
35188;SDS011;21762;54.480;18.556;2022-08-19T03:52:26;22.00;;;16.05;;
35188;SDS011;21762;54.480;18.556;2022-08-19T03:54:54;22.38;;;15.65;;
35188;SDS011;21762;54.480;18.556;2022-08-19T03:57:22;20.70;;;16.30;;
35188;SDS011;21762;54.480;18.556;2022-08-19T03:59:50;22.60;;;16.10;;
35188;SDS011;21762;54.480;18.556;2022-08-19T04:02:19;18.48;;;15.00;;
35188;SDS011;21762;54.480;18.556;2022-08-19T04:04:47;22.63;;;16.15;;
35188;SDS011;21762;54.480;18.556;2022-08-19T04:07:16;20.50;;;16.25;;
35188;SDS011;21762;54.480;18.556;2022-08-19T04:09:46;18.05;;;15.57;;
35188;SDS011;21762;54.480;18.556;2022-08-19T04:12:14;18.35;;;14.52;;
35188;SDS011;21762;54.480;18.556;2022-08-19T04:14:42;20.83;;;15.55;;
35188;SDS011;21762;54.480;18.556;2022-08-19T04:17:11;20.95;;;14.95;;
35188;SDS011;21762;54.480;18.556;2022-08-19T04:19:39;17.63;;;15.82;;
35188;SDS011;21762;54.480;18.556;2022-08-19T04:22:09;19.13;;;15.18;;
35188;SDS011;21762;54.480;18.556;2022-08-19T04:24:38;22.15;;;15.07;;
35188;SDS011;21762;54.480;18.556;2022-08-19T04:27:07;23.85;;;15.20;;
35188;SDS011;21762;54.480;18.556;2022-08-19T04:29:36;19.20;;;15.38;;
35188;SDS011;21762;54.480;18.556;2022-08-19T04:32:06;20.50;;;15.02;;
35188;SDS011;21762;54.480;18.556;2022-08-19T04:34:36;22.67;;;16.00;;
35188;SDS011;21762;54.480;18.556;2022-08-19T04:37:05;20.25;;;15.18;;
35188;SDS011;21762;54.480;18.556;2022-08-19T04:39:38;21.00;;;16.38;;
35188;SDS011;21762;54.480;18.556;2022-08-19T04:42:25;20.15;;;14.60;;
35188;SDS011;21762;54.480;18.556;2022-08-19T04:45:06;22.70;;;16.95;;
35188;SDS011;21762;54.480;18.556;2022-08-19T04:47:37;20.58;;;15.18;;
35188;SDS011;21762;54.480;18.556;2022-08-19T04:50:06;20.50;;;15.57;;
35188;SDS011;21762;54.480;18.556;2022-08-19T04:52:35;18.95;;;14.38;;
35188;SDS011;21762;54.480;18.556;2022-08-19T04:55:04;17.65;;;14.27;;
35188;SDS011;21762;54.480;18.556;2022-08-19T04:57:34;21.10;;;15.75;;
35188;SDS011;21762;54.480;18.556;2022-08-19T05:00:07;23.33;;;16.02;;
35188;SDS011;21762;54.480;18.556;2022-08-19T05:02:36;26.88;;;16.10;;
35188;SDS011;21762;54.480;18.556;2022-08-19T05:05:05;20.15;;;16.45;;
35188;SDS011;21762;54.480;18.556;2022-08-19T05:07:33;19.80;;;14.25;;
35188;SDS011;21762;54.480;18.556;2022-08-19T05:10:02;19.73;;;15.00;;
35188;SDS011;21762;54.480;18.556;2022-08-19T05:12:31;17.35;;;15.02;;
35188;SDS011;21762;54.480;18.556;2022-08-19T05:15:02;20.50;;;15.18;;
35188;SDS011;21762;54.480;18.556;2022-08-19T05:17:36;17.33;;;14.70;;
35188;SDS011;21762;54.480;18.556;2022-08-19T05:20:05;20.92;;;14.88;;
35188;SDS011;21762;54.480;18.556;2022-08-19T05:22:51;18.40;;;14.55;;
35188;SDS011;21762;54.480;18.556;2022-08-19T05:25:21;21.20;;;14.15;;
35188;SDS011;21762;54.480;18.556;2022-08-19T05:27:51;22.43;;;14.30;;
35188;SDS011;21762;54.480;18.556;2022-08-19T05:30:20;19.23;;;14.65;;
35188;SDS011;21762;54.480;18.556;2022-08-19T05:32:48;22.25;;;13.60;;
35188;SDS011;21762;54.480;18.556;2022-08-19T05:35:17;18.45;;;13.77;;
35188;SDS011;21762;54.480;18.556;2022-08-19T05:37:45;16.02;;;13.88;;
35188;SDS011;21762;54.480;18.556;2022-08-19T05:40:13;28.90;;;18.27;;
35188;SDS011;21762;54.480;18.556;2022-08-19T05:42:42;26.27;;;17.38;;
35188;SDS011;21762;54.480;18.556;2022-08-19T05:45:11;21.55;;;16.90;;
35188;SDS011;21762;54.480;18.556;2022-08-19T05:47:44;24.60;;;16.67;;
35188;SDS011;21762;54.480;18.556;2022-08-19T05:50:12;22.75;;;16.77;;
35188;SDS011;21762;54.480;18.556;2022-08-19T05:52:41;29.83;;;18.27;;
35188;SDS011;21762;54.480;18.556;2022-08-19T05:55:09;24.67;;;16.98;;
35188;SDS011;21762;54.480;18.556;2022-08-19T05:57:37;27.58;;;18.08;;
35188;SDS011;21762;54.480;18.556;2022-08-19T06:00:06;20.67;;;15.88;;
35188;SDS011;21762;54.480;18.556;2022-08-19T06:02:37;19.85;;;14.75;;
35188;SDS011;21762;54.480;18.556;2022-08-19T06:05:07;24.02;;;15.77;;
35188;SDS011;21762;54.480;18.556;2022-08-19T06:07:36;21.50;;;16.17;;
35188;SDS011;21762;54.480;18.556;2022-08-19T06:10:06;22.55;;;15.98;;
35188;SDS011;21762;54.480;18.556;2022-08-19T06:12:35;24.73;;;16.70;;
35188;SDS011;21762;54.480;18.556;2022-08-19T06:15:05;18.52;;;15.98;;
35188;SDS011;21762;54.480;18.556;2022-08-19T06:17:35;27.87;;;16.90;;
35188;SDS011;21762;54.480;18.556;2022-08-19T06:20:04;25.48;;;17.17;;
35188;SDS011;21762;54.480;18.556;2022-08-19T06:22:38;25.63;;;14.98;;
35188;SDS011;21762;54.480;18.556;2022-08-19T06:25:07;21.83;;;16.30;;
35188;SDS011;21762;54.480;18.556;2022-08-19T06:27:36;23.92;;;15.95;;
35188;SDS011;21762;54.480;18.556;2022-08-19T06:30:14;27.35;;;16.73;;
35188;SDS011;21762;54.480;18.556;2022-08-19T06:32:42;20.75;;;15.73;;
35188;SDS011;21762;54.480;18.556;2022-08-19T06:35:10;22.77;;;15.85;;
35188;SDS011;21762;54.480;18.556;2022-08-19T06:37:42;21.23;;;17.13;;
35188;SDS011;21762;54.480;18.556;2022-08-19T06:40:11;24.52;;;16.25;;
35188;SDS011;21762;54.480;18.556;2022-08-19T06:42:40;24.52;;;14.60;;
35188;SDS011;21762;54.480;18.556;2022-08-19T06:45:08;22.85;;;15.00;;
35188;SDS011;21762;54.480;18.556;2022-08-19T06:47:36;20.52;;;14.88;;
35188;SDS011;21762;54.480;18.556;2022-08-19T06:50:05;15.90;;;12.68;;
35188;SDS011;21762;54.480;18.556;2022-08-19T06:52:34;23.23;;;13.68;;
35188;SDS011;21762;54.480;18.556;2022-08-19T06:55:04;25.90;;;14.85;;
35188;SDS011;21762;54.480;18.556;2022-08-19T06:57:33;19.45;;;12.98;;
35188;SDS011;21762;54.480;18.556;2022-08-19T07:00:02;19.00;;;13.52;;
35188;SDS011;21762;54.480;18.556;2022-08-19T07:02:32;20.27;;;13.98;;
35188;SDS011;21762;54.480;18.556;2022-08-19T07:05:04;22.42;;;14.65;;
35188;SDS011;21762;54.480;18.556;2022-08-19T07:07:33;21.02;;;13.57;;
35188;SDS011;21762;54.480;18.556;2022-08-19T07:10:03;20.23;;;13.38;;
35188;SDS011;21762;54.480;18.556;2022-08-19T07:12:33;27.90;;;14.80;;
35188;SDS011;21762;54.480;18.556;2022-08-19T07:15:01;23.38;;;13.70;;
35188;SDS011;21762;54.480;18.556;2022-08-19T07:17:30;17.10;;;13.02;;
35188;SDS011;21762;54.480;18.556;2022-08-19T07:19:58;19.90;;;14.43;;
35188;SDS011;21762;54.480;18.556;2022-08-19T07:22:26;22.13;;;14.82;;
35188;SDS011;21762;54.480;18.556;2022-08-19T07:24:55;21.13;;;14.75;;
35188;SDS011;21762;54.480;18.556;2022-08-19T07:27:24;16.85;;;13.75;;
35188;SDS011;21762;54.480;18.556;2022-08-19T07:29:52;25.27;;;15.00;;
35188;SDS011;21762;54.480;18.556;2022-08-19T07:32:21;18.35;;;12.88;;
35188;SDS011;21762;54.480;18.556;2022-08-19T07:34:49;23.33;;;14.23;;
35188;SDS011;21762;54.480;18.556;2022-08-19T07:37:17;31.13;;;16.25;;
35188;SDS011;21762;54.480;18.556;2022-08-19T07:39:45;22.80;;;13.90;;
35188;SDS011;21762;54.480;18.556;2022-08-19T07:42:13;33.58;;;14.60;;
35188;SDS011;21762;54.480;18.556;2022-08-19T07:44:43;18.80;;;12.32;;
35188;SDS011;21762;54.480;18.556;2022-08-19T07:47:11;26.63;;;15.07;;
35188;SDS011;21762;54.480;18.556;2022-08-19T07:49:41;17.92;;;12.65;;
35188;SDS011;21762;54.480;18.556;2022-08-19T07:52:10;18.95;;;13.02;;
35188;SDS011;21762;54.480;18.556;2022-08-19T07:54:38;21.92;;;14.57;;
35188;SDS011;21762;54.480;18.556;2022-08-19T07:57:07;34.78;;;15.52;;
35188;SDS011;21762;54.480;18.556;2022-08-19T07:59:35;25.10;;;15.35;;
35188;SDS011;21762;54.480;18.556;2022-08-19T08:02:05;30.80;;;14.98;;
35188;SDS011;21762;54.480;18.556;2022-08-19T08:04:33;23.55;;;14.50;;
35188;SDS011;21762;54.480;18.556;2022-08-19T08:07:19;47.00;;;20.75;;
35188;SDS011;21762;54.480;18.556;2022-08-19T08:10:05;28.50;;;14.70;;
35188;SDS011;21762;54.480;18.556;2022-08-19T08:12:36;20.67;;;13.68;;
35188;SDS011;21762;54.480;18.556;2022-08-19T08:15:08;30.48;;;13.55;;
35188;SDS011;21762;54.480;18.556;2022-08-19T08:17:38;27.75;;;13.50;;
35188;SDS011;21762;54.480;18.556;2022-08-19T08:20:07;28.73;;;16.27;;
35188;SDS011;21762;54.480;18.556;2022-08-19T08:22:36;22.85;;;15.38;;
35188;SDS011;21762;54.480;18.556;2022-08-19T08:25:22;21.75;;;12.45;;
35188;SDS011;21762;54.480;18.556;2022-08-19T08:27:51;20.38;;;13.02;;
35188;SDS011;21762;54.480;18.556;2022-08-19T08:30:20;23.75;;;12.63;;
35188;SDS011;21762;54.480;18.556;2022-08-19T08:32:50;17.48;;;12.65;;
35188;SDS011;21762;54.480;18.556;2022-08-19T08:35:20;24.23;;;11.85;;
35188;SDS011;21762;54.480;18.556;2022-08-19T08:37:50;22.45;;;11.80;;
35188;SDS011;21762;54.480;18.556;2022-08-19T08:40:22;15.60;;;11.13;;
35188;SDS011;21762;54.480;18.556;2022-08-19T08:43:02;17.43;;;11.33;;
35188;SDS011;21762;54.480;18.556;2022-08-19T08:45:35;16.42;;;11.35;;
35188;SDS011;21762;54.480;18.556;2022-08-19T08:48:10;13.32;;;10.05;;
35188;SDS011;21762;54.480;18.556;2022-08-19T08:50:43;20.77;;;10.88;;
35188;SDS011;21762;54.480;18.556;2022-08-19T08:53:14;13.88;;;10.90;;
35188;SDS011;21762;54.480;18.556;2022-08-19T08:55:44;20.52;;;11.20;;
35188;SDS011;21762;54.480;18.556;2022-08-19T08:58:14;18.50;;;10.88;;
35188;SDS011;21762;54.480;18.556;2022-08-19T09:00:45;18.60;;;11.68;;
35188;SDS011;21762;54.480;18.556;2022-08-19T09:03:18;20.45;;;11.30;;
35188;SDS011;21762;54.480;18.556;2022-08-19T09:05:49;18.17;;;12.02;;
35188;SDS011;21762;54.480;18.556;2022-08-19T09:08:27;17.92;;;11.25;;
35188;SDS011;21762;54.480;18.556;2022-08-19T09:11:03;18.83;;;11.10;;
35188;SDS011;21762;54.480;18.556;2022-08-19T09:13:38;17.17;;;11.43;;
35188;SDS011;21762;54.480;18.556;2022-08-19T09:16:11;18.77;;;10.82;;
35188;SDS011;21762;54.480;18.556;2022-08-19T09:18:43;13.18;;;10.65;;
35188;SDS011;21762;54.480;18.556;2022-08-19T09:21:14;15.82;;;9.43;;
35188;SDS011;21762;54.480;18.556;2022-08-19T09:23:42;14.43;;;8.98;;
35188;SDS011;21762;54.480;18.556;2022-08-19T09:26:13;17.65;;;10.43;;
35188;SDS011;21762;54.480;18.556;2022-08-19T09:28:43;15.70;;;10.88;;
35188;SDS011;21762;54.480;18.556;2022-08-19T09:31:13;12.80;;;9.57;;
35188;SDS011;21762;54.480;18.556;2022-08-19T09:33:43;11.98;;;8.60;;
35188;SDS011;21762;54.480;18.556;2022-08-19T09:36:12;13.52;;;8.98;;
35188;SDS011;21762;54.480;18.556;2022-08-19T09:38:42;12.25;;;8.88;;
35188;SDS011;21762;54.480;18.556;2022-08-19T09:41:12;13.23;;;8.63;;
35188;SDS011;21762;54.480;18.556;2022-08-19T09:43:42;13.02;;;9.20;;
35188;SDS011;21762;54.480;18.556;2022-08-19T09:46:12;16.52;;;9.80;;
35188;SDS011;21762;54.480;18.556;2022-08-19T09:48:45;14.13;;;9.60;;
35188;SDS011;21762;54.480;18.556;2022-08-19T09:51:16;13.80;;;8.80;;
35188;SDS011;21762;54.480;18.556;2022-08-19T09:53:46;19.02;;;8.93;;
35188;SDS011;21762;54.480;18.556;2022-08-19T09:56:17;10.87;;;8.93;;
35188;SDS011;21762;54.480;18.556;2022-08-19T09:58:46;11.73;;;8.57;;
35188;SDS011;21762;54.480;18.556;2022-08-19T10:01:18;15.55;;;8.77;;
35188;SDS011;21762;54.480;18.556;2022-08-19T10:03:49;12.88;;;9.00;;
35188;SDS011;21762;54.480;18.556;2022-08-19T10:06:19;13.00;;;8.48;;
35188;SDS011;21762;54.480;18.556;2022-08-19T10:08:48;11.65;;;9.00;;
35188;SDS011;21762;54.480;18.556;2022-08-19T10:11:17;13.05;;;8.55;;
35188;SDS011;21762;54.480;18.556;2022-08-19T10:13:46;16.95;;;8.85;;
35188;SDS011;21762;54.480;18.556;2022-08-19T10:16:16;12.13;;;8.43;;
35188;SDS011;21762;54.480;18.556;2022-08-19T10:18:46;13.32;;;8.43;;
35188;SDS011;21762;54.480;18.556;2022-08-19T10:21:17;14.75;;;9.20;;
35188;SDS011;21762;54.480;18.556;2022-08-19T10:23:48;11.10;;;8.07;;
35188;SDS011;21762;54.480;18.556;2022-08-19T10:26:18;14.18;;;10.63;;
35188;SDS011;21762;54.480;18.556;2022-08-19T10:28:48;12.25;;;8.30;;
35188;SDS011;21762;54.480;18.556;2022-08-19T10:31:17;13.13;;;8.98;;
35188;SDS011;21762;54.480;18.556;2022-08-19T10:33:47;16.52;;;8.73;;
35188;SDS011;21762;54.480;18.556;2022-08-19T10:36:18;16.35;;;9.25;;
35188;SDS011;21762;54.480;18.556;2022-08-19T10:38:49;14.38;;;9.30;;
35188;SDS011;21762;54.480;18.556;2022-08-19T10:41:22;12.02;;;9.93;;
35188;SDS011;21762;54.480;18.556;2022-08-19T10:43:52;13.50;;;9.07;;
35188;SDS011;21762;54.480;18.556;2022-08-19T10:46:22;13.40;;;9.05;;
35188;SDS011;21762;54.480;18.556;2022-08-19T10:48:52;12.18;;;8.75;;
35188;SDS011;21762;54.480;18.556;2022-08-19T10:51:22;12.93;;;9.82;;
35188;SDS011;21762;54.480;18.556;2022-08-19T10:54:07;14.32;;;9.05;;
35188;SDS011;21762;54.480;18.556;2022-08-19T10:56:36;13.30;;;9.55;;
35188;SDS011;21762;54.480;18.556;2022-08-19T10:59:18;14.88;;;9.98;;
35188;SDS011;21762;54.480;18.556;2022-08-19T11:01:48;10.98;;;9.52;;
35188;SDS011;21762;54.480;18.556;2022-08-19T11:04:17;15.95;;;9.27;;
35188;SDS011;21762;54.480;18.556;2022-08-19T11:06:48;11.90;;;8.23;;
35188;SDS011;21762;54.480;18.556;2022-08-19T11:09:17;18.67;;;10.93;;
35188;SDS011;21762;54.480;18.556;2022-08-19T11:11:46;17.92;;;9.57;;
35188;SDS011;21762;54.480;18.556;2022-08-19T11:14:15;14.15;;;9.25;;
35188;SDS011;21762;54.480;18.556;2022-08-19T11:16:47;18.05;;;9.88;;
35188;SDS011;21762;54.480;18.556;2022-08-19T11:19:15;14.13;;;9.20;;
35188;SDS011;21762;54.480;18.556;2022-08-19T11:21:46;11.73;;;8.55;;
35188;SDS011;21762;54.480;18.556;2022-08-19T11:24:17;15.10;;;9.75;;
35188;SDS011;21762;54.480;18.556;2022-08-19T11:26:47;17.30;;;10.33;;
35188;SDS011;21762;54.480;18.556;2022-08-19T11:29:17;18.23;;;9.48;;
35188;SDS011;21762;54.480;18.556;2022-08-19T11:31:47;13.82;;;9.57;;
35188;SDS011;21762;54.480;18.556;2022-08-19T11:34:17;17.08;;;9.93;;
35188;SDS011;21762;54.480;18.556;2022-08-19T11:36:49;14.38;;;8.70;;
35188;SDS011;21762;54.480;18.556;2022-08-19T11:39:19;12.07;;;9.05;;
35188;SDS011;21762;54.480;18.556;2022-08-19T11:41:48;12.93;;;9.37;;
35188;SDS011;21762;54.480;18.556;2022-08-19T11:44:17;13.70;;;9.55;;
35188;SDS011;21762;54.480;18.556;2022-08-19T11:46:45;16.98;;;9.48;;
35188;SDS011;21762;54.480;18.556;2022-08-19T11:49:14;13.50;;;9.40;;
35188;SDS011;21762;54.480;18.556;2022-08-19T11:51:45;19.92;;;9.70;;
35188;SDS011;21762;54.480;18.556;2022-08-19T11:54:16;15.63;;;9.35;;
35188;SDS011;21762;54.480;18.556;2022-08-19T11:56:45;11.55;;;9.30;;
35188;SDS011;21762;54.480;18.556;2022-08-19T11:59:15;11.68;;;8.43;;
35188;SDS011;21762;54.480;18.556;2022-08-19T12:01:43;12.30;;;9.38;;
35188;SDS011;21762;54.480;18.556;2022-08-19T12:04:12;17.70;;;9.90;;
35188;SDS011;21762;54.480;18.556;2022-08-19T12:06:41;12.57;;;9.13;;
35188;SDS011;21762;54.480;18.556;2022-08-19T12:09:10;11.82;;;9.20;;
35188;SDS011;21762;54.480;18.556;2022-08-19T12:11:40;17.60;;;9.27;;
35188;SDS011;21762;54.480;18.556;2022-08-19T12:14:09;13.05;;;9.07;;
35188;SDS011;21762;54.480;18.556;2022-08-19T12:16:40;15.93;;;9.60;;
35188;SDS011;21762;54.480;18.556;2022-08-19T12:19:08;12.88;;;9.57;;
35188;SDS011;21762;54.480;18.556;2022-08-19T12:21:37;14.93;;;9.68;;
35188;SDS011;21762;54.480;18.556;2022-08-19T12:24:07;14.38;;;8.50;;
35188;SDS011;21762;54.480;18.556;2022-08-19T12:26:37;13.43;;;9.18;;
35188;SDS011;21762;54.480;18.556;2022-08-19T12:31:38;13.43;;;8.68;;
35188;SDS011;21762;54.480;18.556;2022-08-19T12:34:07;11.48;;;8.95;;
35188;SDS011;21762;54.480;18.556;2022-08-19T12:36:35;14.80;;;9.70;;
35188;SDS011;21762;54.480;18.556;2022-08-19T12:39:04;15.15;;;8.90;;
35188;SDS011;21762;54.480;18.556;2022-08-19T12:41:35;16.40;;;9.60;;
35188;SDS011;21762;54.480;18.556;2022-08-19T12:44:03;20.83;;;10.40;;
35188;SDS011;21762;54.480;18.556;2022-08-19T12:46:33;16.33;;;9.13;;
35188;SDS011;21762;54.480;18.556;2022-08-19T12:49:01;15.50;;;8.52;;
35188;SDS011;21762;54.480;18.556;2022-08-19T12:51:30;11.55;;;8.30;;
35188;SDS011;21762;54.480;18.556;2022-08-19T12:53:58;13.07;;;8.63;;
35188;SDS011;21762;54.480;18.556;2022-08-19T12:56:27;13.00;;;8.80;;
35188;SDS011;21762;54.480;18.556;2022-08-19T12:58:55;16.15;;;8.65;;
35188;SDS011;21762;54.480;18.556;2022-08-19T13:01:24;12.43;;;8.13;;
35188;SDS011;21762;54.480;18.556;2022-08-19T13:03:53;15.77;;;8.15;;
35188;SDS011;21762;54.480;18.556;2022-08-19T13:06:23;15.80;;;8.43;;
35188;SDS011;21762;54.480;18.556;2022-08-19T13:08:51;12.43;;;8.10;;
35188;SDS011;21762;54.480;18.556;2022-08-19T13:11:22;14.83;;;8.53;;
35188;SDS011;21762;54.480;18.556;2022-08-19T13:13:51;17.80;;;9.10;;
35188;SDS011;21762;54.480;18.556;2022-08-19T13:16:21;13.50;;;7.47;;
35188;SDS011;21762;54.480;18.556;2022-08-19T13:18:50;16.38;;;8.73;;
35188;SDS011;21762;54.480;18.556;2022-08-19T13:21:21;9.10;;;7.80;;
35188;SDS011;21762;54.480;18.556;2022-08-19T13:23:50;14.27;;;8.35;;
35188;SDS011;21762;54.480;18.556;2022-08-19T13:26:19;14.80;;;8.25;;
35188;SDS011;21762;54.480;18.556;2022-08-19T13:28:48;10.50;;;7.82;;
35188;SDS011;21762;54.480;18.556;2022-08-19T13:31:36;19.33;;;9.77;;
35188;SDS011;21762;54.480;18.556;2022-08-19T13:34:29;17.02;;;8.43;;
35188;SDS011;21762;54.480;18.556;2022-08-19T13:37:01;14.75;;;8.65;;
35188;SDS011;21762;54.480;18.556;2022-08-19T13:39:36;14.13;;;8.43;;
35188;SDS011;21762;54.480;18.556;2022-08-19T13:42:06;14.63;;;8.18;;
35188;SDS011;21762;54.480;18.556;2022-08-19T13:44:37;12.52;;;8.57;;
35188;SDS011;21762;54.480;18.556;2022-08-19T13:47:05;11.68;;;7.82;;
35188;SDS011;21762;54.480;18.556;2022-08-19T13:49:35;11.45;;;8.40;;
35188;SDS011;21762;54.480;18.556;2022-08-19T13:52:05;13.10;;;8.95;;
35188;SDS011;21762;54.480;18.556;2022-08-19T13:54:34;14.73;;;8.38;;
35188;SDS011;21762;54.480;18.556;2022-08-19T13:57:03;11.50;;;7.70;;
35188;SDS011;21762;54.480;18.556;2022-08-19T13:59:32;12.52;;;8.35;;
35188;SDS011;21762;54.480;18.556;2022-08-19T14:02:00;9.43;;;8.30;;
35188;SDS011;21762;54.480;18.556;2022-08-19T14:04:28;15.00;;;8.32;;
35188;SDS011;21762;54.480;18.556;2022-08-19T14:06:57;16.95;;;7.80;;
35188;SDS011;21762;54.480;18.556;2022-08-19T14:09:26;11.30;;;8.52;;
35188;SDS011;21762;54.480;18.556;2022-08-19T14:11:54;12.95;;;7.72;;
35188;SDS011;21762;54.480;18.556;2022-08-19T14:14:23;13.25;;;7.90;;
35188;SDS011;21762;54.480;18.556;2022-08-19T14:16:51;20.40;;;7.88;;
35188;SDS011;21762;54.480;18.556;2022-08-19T14:19:19;13.63;;;7.88;;
35188;SDS011;21762;54.480;18.556;2022-08-19T14:21:47;11.90;;;7.68;;
35188;SDS011;21762;54.480;18.556;2022-08-19T14:24:16;11.68;;;7.40;;
35188;SDS011;21762;54.480;18.556;2022-08-19T14:26:45;16.17;;;8.18;;
35188;SDS011;21762;54.480;18.556;2022-08-19T14:29:14;18.45;;;7.75;;
35188;SDS011;21762;54.480;18.556;2022-08-19T14:31:42;12.88;;;7.50;;
35188;SDS011;21762;54.480;18.556;2022-08-19T14:34:10;10.88;;;8.10;;